KGRB/GRB METAR and TAF weather

Enter ICAO airport designator
Station Type Date Time Source
KGRB METAR 2020/07/05 15:53 UTC NOAA

KGRB 051553Z 27005KT 10SM CLR 31/21 A2999 RMK AO2 SLP151 T03110211


Station Type Date Time Source
KGRB Decoded METAR 2020/07/05 15:53 UTC NOAA

AUSTIN STRAUBEL INTERNATIONAL AIRPORT , WI, United States (KGRB) 44-29N 088-08W 205M
Jul 05, 2020 - 11:53 AM EDT / 2020.07.05 1553 UTC
Wind: from the W (270 degrees) at 6 MPH (5 KT):0
Visibility: 10 mile(s):0
Sky conditions: clear
Temperature: 88.0 F (31.1 C)
Dew Point: 70.0 F (21.1 C)
Relative Humidity: 55%
Pressure (altimeter): 29.99 in. Hg (1015 hPa)
ob: KGRB 051553Z 27005KT 10SM CLR 31/21 A2999 RMK AO2 SLP151 T03110211
cycle: 16

Station Type Date Time Source
KGRB TAF 2020/07/05 12:22 UTC NOAA

TAF KGRB 051120Z 0512/0612 VRB03KT P6SM SCT250
FM051500 23006KT P6SM SCT050 SCT150
FM051800 27006KT P6SM SCT060
FM052200 23004KT P6SM SCT200
FM060200 VRB03KT P6SM SCT250

Example: see airport list